Time;durP1;ratioP1;P1;durP2;ratioP2;P2;SDS_P1;SDS_P2;PMS_P1;PMS_P2;Temp;Humidity;BMP_temperature;BMP_pressure;BME280_temperature;BME280_humidity;BME280_pressure;Samples;Min_cycle;Max_cycle;Signal;HPM_P1;HPM_P2
2022/05/31 00:02:19;;;;;;;14.00;4.93;;;19.50;59.00;;;;;;5064542;28;21227;-77
2022/05/31 00:04:46;;;;;;;9.02;4.05;;;19.50;59.10;;;;;;5047560;28;20043;-77
2022/05/31 00:07:12;;;;;;;9.32;4.50;;;19.50;59.20;;;;;;5047091;28;20064;-77
2022/05/31 00:09:38;;;;;;;9.48;4.32;;;19.50;59.30;;;;;;5063257;28;20098;-76
2022/05/31 00:12:06;;;;;;;12.15;4.25;;;19.50;59.50;;;;;;5048042;28;20059;-77
2022/05/31 00:14:32;;;;;;;9.05;3.97;;;19.50;59.50;;;;;;5064796;28;20039;-77
2022/05/31 00:17:00;;;;;;;6.25;3.92;;;19.40;59.50;;;;;;5045914;28;20529;-77
2022/05/31 00:19:26;;;;;;;9.15;4.30;;;19.50;59.50;;;;;;5062567;28;20068;-77
2022/05/31 00:22:05;;;;;;;8.48;3.92;;;19.40;59.60;;;;;;5050459;28;20033;-77
2022/05/31 00:24:31;;;;;;;10.27;4.47;;;19.40;59.70;;;;;;5048996;28;20119;-77
2022/05/31 00:26:59;;;;;;;9.32;3.97;;;19.40;59.80;;;;;;5032309;28;20173;-77
2022/05/31 00:29:26;;;;;;;10.10;3.90;;;19.40;60.00;;;;;;5049726;28;20052;-76
2022/05/31 00:31:53;;;;;;;10.25;4.75;;;19.40;60.20;;;;;;5032896;28;20040;-77
2022/05/31 00:34:19;;;;;;;9.50;4.60;;;19.40;60.30;;;;;;5049913;28;20040;-77
2022/05/31 00:36:48;;;;;;;12.48;4.68;;;19.40;60.50;;;;;;5063570;28;20082;-77
2022/05/31 00:39:14;;;;;;;8.68;4.60;;;19.30;60.60;;;;;;5056451;28;20036;-77
2022/05/31 00:41:40;;;;;;;13.38;5.07;;;19.30;60.60;;;;;;5056377;28;20087;-77
2022/05/31 00:44:19;;;;;;;10.15;4.85;;;19.30;60.70;;;;;;5053899;28;20067;-77
2022/05/31 00:47:01;;;;;;;7.63;5.07;;;19.30;60.70;;;;;;5064659;28;20086;-77
2022/05/31 00:49:33;;;;;;;11.73;5.25;;;19.30;60.80;;;;;;5062843;28;20032;-77
2022/05/31 00:52:13;;;;;;;7.82;4.63;;;19.30;60.50;;;;;;5045998;28;20127;-77
2022/05/31 00:54:47;;;;;;;7.55;4.43;;;19.30;60.60;;;;;;5042974;28;20499;-77
2022/05/31 00:57:14;;;;;;;9.25;5.15;;;19.30;60.60;;;;;;5063165;28;20033;-77
2022/05/31 00:59:50;;;;;;;7.45;4.85;;;19.30;60.60;;;;;;5044791;28;20075;-77
2022/05/31 01:02:18;;;;;;;9.98;5.45;;;19.20;60.60;;;;;;5043035;28;20099;-77
2022/05/31 01:04:53;;;;;;;7.65;5.25;;;19.20;60.50;;;;;;5048650;28;20198;-77
2022/05/31 01:07:19;;;;;;;13.98;5.25;;;19.30;60.70;;;;;;5042941;28;20035;-77
2022/05/31 01:09:45;;;;;;;5.88;4.68;;;19.20;60.50;;;;;;5027088;28;20041;-77
2022/05/31 01:12:29;;;;;;;9.02;5.13;;;19.20;60.60;;;;;;5050254;28;20786;-77
2022/05/31 01:15:16;;;;;;;7.30;4.85;;;19.20;60.70;;;;;;5061581;28;20948;-78
2022/05/31 01:18:00;;;;;;;8.73;4.82;;;19.20;60.90;;;;;;5062085;28;20040;-77
2022/05/31 01:20:26;;;;;;;11.07;4.82;;;19.10;60.90;;;;;;5062665;28;20051;-78
2022/05/31 01:23:15;;;;;;;10.82;4.88;;;19.20;61.10;;;;;;5048794;28;20565;-78
2022/05/31 01:26:21;;;;;;;7.88;4.53;;;19.10;61.00;;;;;;5061847;28;20040;-78
2022/05/31 01:29:10;;;;;;;6.45;3.88;;;19.10;61.10;;;;;;5044686;28;20040;-78
2022/05/31 01:31:46;;;;;;;6.47;3.80;;;19.10;61.10;;;;;;5027787;28;20041;-78
2022/05/31 01:34:12;;;;;;;;;;;19.10;61.30;;;;;;5047002;28;20518;-78
2022/05/31 01:36:56;;;;;;;;;;;19.10;61.30;;;;;;5032344;28;19973;-78
2022/05/31 01:39:33;;;;;;;6.78;3.53;;;19.10;61.30;;;;;;5061156;28;19917;-78
2022/05/31 01:42:11;;;;;;;6.38;3.72;;;19.10;61.40;;;;;;5031898;28;20048;-77
2022/05/31 01:44:42;;;;;;;8.30;3.47;;;19.10;61.60;;;;;;5043314;28;20040;-77
2022/05/31 01:47:08;;;;;;;7.00;3.70;;;19.10;61.80;;;;;;5062333;28;20089;-78
2022/05/31 01:49:39;;;;;;;4.72;3.22;;;19.00;62.00;;;;;;5047277;28;20392;-78
2022/05/31 01:52:07;;;;;;;7.68;3.63;;;19.10;62.20;;;;;;5065075;28;20068;-78
2022/05/31 01:54:35;;;;;;;6.80;3.15;;;19.00;62.30;;;;;;5034312;28;20107;-77
2022/05/31 01:57:03;;;;;;;7.65;3.38;;;19.00;62.50;;;;;;5042682;28;20024;-77
2022/05/31 01:59:42;;;;;;;4.38;2.90;;;19.00;62.70;;;;;;5045626;28;20035;-77
2022/05/31 02:02:09;;;;;;;4.93;3.15;;;19.00;62.80;;;;;;5048348;28;20139;-78
2022/05/31 02:04:35;;;;;;;13.35;3.40;;;19.00;63.00;;;;;;5041270;28;20043;-77
2022/05/31 02:07:15;;;;;;;4.60;2.97;;;19.00;63.20;;;;;;5060073;28;20032;-77
2022/05/31 02:09:48;;;;;;;5.22;3.38;;;19.00;63.30;;;;;;5047013;28;20465;-77
2022/05/31 02:12:24;;;;;;;6.90;3.08;;;19.00;63.40;;;;;;5060282;28;20037;-77
2022/05/31 02:15:10;;;;;;;7.05;3.05;;;19.00;63.40;;;;;;5049988;28;20039;-78
2022/05/31 02:17:43;;;;;;;4.72;3.22;;;19.00;63.50;;;;;;5049020;28;20037;-77
2022/05/31 02:20:35;;;;;;;6.10;3.33;;;19.00;63.70;;;;;;5050691;28;20037;-77
2022/05/31 02:23:02;;;;;;;5.55;3.15;;;19.00;64.50;;;;;;5060517;28;20123;-77
2022/05/31 02:25:28;;;;;;;7.07;3.17;;;18.90;64.50;;;;;;5042739;28;20418;-77
2022/05/31 02:27:55;;;;;;;7.32;3.15;;;19.00;64.10;;;;;;5031104;28;20739;-77
2022/05/31 02:30:21;;;;;;;6.78;3.47;;;19.00;64.10;;;;;;5046113;28;20503;-77
2022/05/31 02:32:47;;;;;;;4.97;2.92;;;19.00;64.30;;;;;;5043777;28;20060;-77
2022/05/31 02:35:14;;;;;;;5.75;3.03;;;19.00;64.30;;;;;;5031660;28;20071;-78
2022/05/31 02:37:40;;;;;;;4.35;2.90;;;18.90;64.40;;;;;;5042844;28;20444;-78
2022/05/31 02:40:07;;;;;;;5.28;3.33;;;18.90;64.50;;;;;;5047337;28;20060;-77
2022/05/31 02:42:34;;;;;;;8.30;3.13;;;18.90;64.50;;;;;;5030091;28;20044;-77
2022/05/31 02:45:01;;;;;;;6.45;2.95;;;18.90;64.50;;;;;;5061836;28;20111;-77
2022/05/31 02:47:27;;;;;;;4.53;2.90;;;18.90;64.50;;;;;;5043665;28;20086;-77
2022/05/31 02:49:53;;;;;;;3.88;2.85;;;18.90;64.60;;;;;;5047038;28;20032;-77
2022/05/31 02:52:19;;;;;;;7.30;3.03;;;18.90;64.50;;;;;;5061337;28;20033;-77
2022/05/31 02:54:45;;;;;;;6.45;3.33;;;18.90;64.50;;;;;;5062554;28;20029;-77
2022/05/31 02:57:20;;;;;;;3.78;2.47;;;18.90;64.50;;;;;;5062760;28;20078;-77
2022/05/31 02:59:58;;;;;;;5.05;2.55;;;18.90;64.60;;;;;;5065432;28;20108;-78
2022/05/31 03:02:30;;;;;;;4.35;2.83;;;18.90;64.60;;;;;;5068501;28;20051;-77
2022/05/31 03:05:15;;;;;;;4.57;2.70;;;18.90;64.80;;;;;;5032533;28;20133;-78
2022/05/31 03:07:44;;;;;;;5.25;2.45;;;18.90;64.90;;;;;;5042955;28;20514;-78
2022/05/31 03:10:14;;;;;;;3.58;2.50;;;18.90;65.10;;;;;;5031048;28;20044;-77
2022/05/31 03:12:41;;;;;;;3.97;2.50;;;18.90;65.20;;;;;;5043165;28;20040;-78
2022/05/31 03:15:10;;;;;;;4.82;2.75;;;18.90;65.40;;;;;;5029985;28;20047;-77
2022/05/31 03:17:39;;;;;;;4.68;2.63;;;18.90;65.60;;;;;;5042939;28;20537;-77
2022/05/31 03:20:15;;;;;;;7.20;2.50;;;18.90;65.60;;;;;;5058507;28;20091;-78
2022/05/31 03:22:49;;;;;;;;;;;18.80;65.70;;;;;;5026819;28;20028;-78
2022/05/31 03:25:22;;;;;;;3.88;2.67;;;18.80;65.70;;;;;;5042039;28;19927;-78
2022/05/31 03:27:51;;;;;;;3.17;2.42;;;18.80;65.90;;;;;;5060132;28;20040;-81
2022/05/31 03:30:17;;;;;;;5.47;2.60;;;18.80;65.90;;;;;;5028912;28;20044;-82
2022/05/31 03:32:44;;;;;;;4.85;2.40;;;18.80;65.90;;;;;;5028156;28;20419;-82
2022/05/31 03:35:10;;;;;;;4.32;2.28;;;18.80;66.00;;;;;;5029494;28;20048;-81
2022/05/31 03:37:38;;;;;;;4.32;2.40;;;18.80;66.00;;;;;;5028901;28;20037;-81
2022/05/31 03:43:04;;;;;;;4.90;2.40;;;18.80;66.20;;;;;;5046363;28;20037;-81
2022/05/31 03:45:36;;;;;;;5.45;2.22;;;18.80;66.40;;;;;;5029498;28;20431;-81
2022/05/31 03:48:21;;;;;;;6.78;2.15;;;18.80;66.60;;;;;;5042509;28;20041;-81
2022/05/31 03:51:09;;;;;;;5.63;2.60;;;18.80;66.70;;;;;;5042625;28;20079;-81
2022/05/31 03:53:36;;;;;;;5.43;2.30;;;18.80;67.10;;;;;;5029630;28;20572;-81
2022/05/31 03:56:09;;;;;;;4.35;2.17;;;18.80;67.00;;;;;;5029642;28;20115;-81
2022/05/31 03:58:37;;;;;;;3.00;2.30;;;18.80;67.10;;;;;;5042575;28;20094;-81
2022/05/31 04:01:18;;;;;;;3.42;2.00;;;18.80;67.10;;;;;;5044924;28;20235;-80
2022/05/31 04:03:45;;;;;;;4.53;2.30;;;18.80;67.20;;;;;;5042976;28;20149;-80
2022/05/31 04:06:12;;;;;;;6.68;2.53;;;18.80;67.30;;;;;;5040949;28;20120;-81
2022/05/31 04:08:37;;;;;;;6.40;2.35;;;18.80;67.50;;;;;;5025906;28;20462;-80
2022/05/31 04:11:04;;;;;;;2.85;2.10;;;18.80;67.60;;;;;;5042940;28;20036;-80
2022/05/31 04:13:30;;;;;;;3.22;1.92;;;18.80;67.90;;;;;;5032960;28;20060;-80
2022/05/31 04:16:14;;;;;;;4.35;2.20;;;18.80;67.90;;;;;;5053543;28;20506;-81
2022/05/31 04:18:46;;;;;;;4.68;2.20;;;18.80;68.10;;;;;;5014256;28;20037;-81
2022/05/31 04:21:16;;;;;;;5.72;2.20;;;18.80;68.10;;;;;;5030216;28;20131;-81
2022/05/31 04:23:59;;;;;;;7.80;2.63;;;18.80;68.30;;;;;;5041904;28;20033;-81
2022/05/31 04:26:47;;;;;;;5.78;2.38;;;18.80;68.50;;;;;;5046764;28;20057;-81
2022/05/31 04:29:34;;;;;;;3.45;2.50;;;18.80;68.50;;;;;;5059698;28;20040;-81
2022/05/31 04:32:18;;;;;;;5.53;2.40;;;18.80;68.60;;;;;;5040739;28;20049;-79
2022/05/31 04:35:03;;;;;;;5.82;2.03;;;18.80;68.60;;;;;;5061226;28;20033;-79
2022/05/31 04:37:30;;;;;;;4.20;1.90;;;18.80;68.60;;;;;;5032951;28;20036;-79
2022/05/31 04:40:10;;;;;;;9.30;2.78;;;18.80;68.70;;;;;;5035203;28;20037;-82
2022/05/31 04:42:42;;;;;;;3.45;2.08;;;18.80;68.70;;;;;;5064251;28;20048;-78
2022/05/31 04:45:16;;;;;;;4.38;2.22;;;18.80;68.60;;;;;;5061279;28;20600;-79
2022/05/31 04:47:43;;;;;;;3.67;2.15;;;18.90;68.70;;;;;;5027651;28;20550;-80
2022/05/31 04:50:10;;;;;;;2.58;1.80;;;18.90;68.70;;;;;;5048323;28;20032;-80
2022/05/31 04:52:37;;;;;;;6.38;1.92;;;18.80;68.50;;;;;;5046642;28;20392;-79
2022/05/31 04:55:04;;;;;;;1.88;1.58;;;18.90;68.60;;;;;;5026617;28;20503;-80
2022/05/31 04:57:45;;;;;;;4.63;2.22;;;18.80;68.50;;;;;;5049313;28;20036;-80
2022/05/31 05:00:13;;;;;;;5.03;2.03;;;18.80;68.60;;;;;;5049344;28;20036;-78
2022/05/31 05:02:59;;;;;;;5.28;2.20;;;18.80;68.70;;;;;;5050122;28;20051;-78
2022/05/31 05:05:28;;;;;;;3.60;1.92;;;18.80;68.60;;;;;;5048058;28;20361;-78
2022/05/31 05:08:00;;;;;;;5.45;2.25;;;18.70;68.40;;;;;;5065038;28;20054;-78
2022/05/31 05:10:31;;;;;;;3.83;2.10;;;18.80;68.40;;;;;;5043990;28;20045;-77
2022/05/31 05:13:31;;;;;;;3.75;2.10;;;18.70;68.40;;;;;;5040920;28;20472;-79
2022/05/31 05:16:17;;;;;;;3.38;2.25;;;18.70;68.30;;;;;;4971364;28;20046;-79
2022/05/31 05:18:49;;;;;;;4.53;2.63;;;18.70;68.50;;;;;;4951742;28;20041;-78
2022/05/31 05:21:17;;;;;;;2.25;2.05;;;18.70;68.70;;;;;;4952270;28;20050;-77
2022/05/31 05:23:43;;;;;;;4.65;2.15;;;18.70;69.00;;;;;;4938110;28;20126;-77
2022/05/31 05:26:13;;;;;;;4.97;2.40;;;18.70;69.00;;;;;;4966681;28;20039;-78
2022/05/31 05:31:41;;;;;;;4.70;2.00;;;18.70;69.30;;;;;;4957266;28;20045;-77
2022/05/31 05:34:25;;;;;;;3.53;2.00;;;18.70;69.70;;;;;;4966189;28;20039;-78
2022/05/31 05:36:54;;;;;;;5.20;2.20;;;18.80;69.80;;;;;;4950532;28;20037;-77
2022/05/31 05:39:21;;;;;;;3.35;1.92;;;18.80;69.80;;;;;;4944567;28;20043;-78
2022/05/31 05:42:14;;;;;;;4.13;1.95;;;18.80;69.70;;;;;;4966034;28;20041;-78
2022/05/31 05:45:10;;;;;;;;;;;18.80;69.80;;;;;;4909026;29;20169;-78
2022/05/31 05:47:37;;;;;;;5.50;2.17;;;18.80;70.00;;;;;;4908255;29;19926;-78
2022/05/31 05:50:05;;;;;;;3.42;2.22;;;18.80;69.90;;;;;;4909488;29;20036;-78
2022/05/31 05:52:55;;;;;;;2.95;1.85;;;18.80;70.10;;;;;;4917071;28;20030;-78
2022/05/31 05:55:40;;;;;;;4.75;2.50;;;18.80;70.10;;;;;;4998431;28;20467;-76
2022/05/31 05:58:25;;;;;;;3.65;2.50;;;18.90;70.20;;;;;;5000612;28;20034;-77
2022/05/31 06:01:24;;;;;;;5.68;2.10;;;18.90;70.10;;;;;;5001749;28;20132;-76
2022/05/31 06:04:24;;;;;;;4.70;2.22;;;18.90;70.20;;;;;;4980697;28;20030;-76
2022/05/31 06:07:19;;;;;;;3.83;2.55;;;18.90;70.40;;;;;;5000399;28;20145;-77
2022/05/31 06:09:55;;;;;;;17.27;2.92;;;18.90;70.60;;;;;;4999605;28;20038;-76
2022/05/31 06:12:27;;;;;;;4.38;2.30;;;18.90;70.80;;;;;;4983994;28;20053;-76
2022/05/31 06:15:00;;;;;;;8.70;2.65;;;18.90;70.90;;;;;;4998591;28;20038;-78
2022/05/31 06:17:33;;;;;;;5.13;1.98;;;18.90;71.00;;;;;;4984269;28;20033;-77
2022/05/31 06:20:03;;;;;;;4.78;2.58;;;18.90;71.10;;;;;;4965531;28;20134;-77
2022/05/31 06:22:30;;;;;;;3.50;2.40;;;18.90;71.20;;;;;;5039080;28;20036;-77
2022/05/31 06:25:13;;;;;;;4.68;2.67;;;18.90;71.20;;;;;;5025652;28;20037;-77
2022/05/31 06:27:51;;;;;;;3.80;2.53;;;18.90;71.20;;;;;;5059048;28;20039;-77
2022/05/31 06:30:18;;;;;;;5.72;2.70;;;18.90;71.30;;;;;;5043908;28;20055;-77
2022/05/31 06:32:45;;;;;;;5.55;2.70;;;18.90;71.40;;;;;;5045574;28;20138;-77
2022/05/31 06:35:11;;;;;;;5.80;2.83;;;18.90;71.50;;;;;;5041481;28;20054;-76
2022/05/31 06:37:47;;;;;;;7.85;2.97;;;18.90;71.60;;;;;;5015440;28;20036;-77
2022/05/31 06:40:13;;;;;;;4.80;2.97;;;18.90;71.80;;;;;;5042945;28;20024;-77
2022/05/31 06:43:04;;;;;;;4.03;2.95;;;18.90;71.90;;;;;;5044800;28;20549;-77
2022/05/31 06:45:42;;;;;;;5.72;3.28;;;18.90;72.00;;;;;;5060072;28;20032;-78
2022/05/31 06:48:27;;;;;;;4.22;3.03;;;18.90;72.20;;;;;;5062608;28;20446;-77
2022/05/31 06:51:13;;;;;;;7.38;3.45;;;18.90;72.30;;;;;;5060570;28;20476;-77
2022/05/31 06:57:29;;;;;;;4.13;3.00;;;18.90;72.60;;;;;;5004041;28;20037;-77
2022/05/31 07:00:10;;;;;;;6.70;3.25;;;18.90;72.60;;;;;;4994613;28;20053;-77
2022/05/31 07:02:37;;;;;;;6.63;3.78;;;18.90;72.80;;;;;;4997957;28;20532;-77
2022/05/31 07:05:03;;;;;;;4.20;3.33;;;18.90;72.90;;;;;;4986791;28;20087;-77
2022/05/31 07:07:30;;;;;;;5.72;3.25;;;18.90;72.90;;;;;;4987132;28;20053;-77
2022/05/31 07:09:57;;;;;;;4.28;3.03;;;18.90;72.90;;;;;;5003475;28;20045;-77
2022/05/31 07:13:01;;;;;;;6.05;3.92;;;18.90;73.10;;;;;;5003415;28;20532;-77
2022/05/31 07:16:02;;;;;;;6.60;3.63;;;18.90;73.20;;;;;;4960347;28;20408;-77
2022/05/31 07:18:46;;;;;;;9.43;3.60;;;18.90;73.10;;;;;;5003494;28;20038;-77
2022/05/31 07:21:13;;;;;;;9.05;3.70;;;18.90;73.10;;;;;;4986736;28;20026;-77
2022/05/31 07:23:40;;;;;;;4.90;3.30;;;18.90;73.10;;;;;;4994593;28;20034;-77
2022/05/31 07:26:09;;;;;;;4.60;3.15;;;18.90;73.10;;;;;;4970429;28;20030;-77
2022/05/31 07:28:35;;;;;;;7.65;3.53;;;18.90;73.10;;;;;;4986888;28;20504;-77
2022/05/31 07:31:04;;;;;;;11.18;3.67;;;18.90;73.20;;;;;;4986368;28;20088;-77
2022/05/31 07:33:32;;;;;;;6.10;3.08;;;18.90;73.20;;;;;;5008002;28;20047;-77
2022/05/31 07:36:01;;;;;;;5.20;2.88;;;18.90;73.30;;;;;;5043572;28;20033;-77
2022/05/31 07:38:27;;;;;;;8.98;2.70;;;19.00;73.30;;;;;;5042227;28;20036;-77
2022/05/31 07:40:54;;;;;;;7.18;2.55;;;19.00;73.30;;;;;;5011171;28;20033;-77
2022/05/31 07:43:22;;;;;;;6.40;2.85;;;19.00;73.40;;;;;;5046776;28;20730;-78
2022/05/31 07:45:49;;;;;;;5.40;2.30;;;19.00;73.30;;;;;;5044407;28;20059;-77
2022/05/31 07:48:15;;;;;;;7.53;2.70;;;19.10;73.20;;;;;;5029703;28;20036;-76
2022/05/31 07:50:44;;;;;;;4.45;2.40;;;19.10;73.20;;;;;;5028458;28;20147;-78
2022/05/31 07:53:16;;;;;;;6.43;2.58;;;19.10;73.20;;;;;;5069267;28;20029;-78
2022/05/31 07:56:06;;;;;;;5.03;2.53;;;19.20;73.30;;;;;;5067845;28;20036;-78
2022/05/31 07:58:51;;;;;;;4.43;2.83;;;19.20;73.40;;;;;;5032627;28;20503;-92
2022/05/31 08:01:36;;;;;;;5.07;2.20;;;19.30;73.40;;;;;;5066164;28;20044;-87
2022/05/31 08:04:14;;;;;;;5.88;2.40;;;19.30;72.50;;;;;;5054180;28;20154;-88
2022/05/31 08:06:40;;;;;;;3.28;2.22;;;19.30;72.00;;;;;;5053031;28;20052;-88
2022/05/31 08:09:06;;;;;;;5.20;2.05;;;19.40;71.80;;;;;;5034416;28;20504;-88
2022/05/31 08:11:33;;;;;;;4.20;2.20;;;19.40;71.60;;;;;;5053701;28;20040;-86
2022/05/31 08:14:01;;;;;;;4.78;2.30;;;19.50;71.50;;;;;;5070998;28;20040;-90
2022/05/31 08:16:28;;;;;;;3.45;2.60;;;19.50;71.30;;;;;;5053533;28;20044;-81
2022/05/31 08:18:55;;;;;;;3.30;2.50;;;19.50;71.30;;;;;;5071764;28;20055;-80
2022/05/31 08:21:32;;;;;;;3.28;2.13;;;19.60;72.10;;;;;;5043410;28;20040;-81
2022/05/31 08:24:04;;;;;;;3.25;2.45;;;19.70;71.50;;;;;;5056070;28;20040;-83
2022/05/31 08:26:31;;;;;;;6.85;2.60;;;19.70;71.70;;;;;;5036936;28;20059;-83
2022/05/31 08:28:57;;;;;;;5.28;2.40;;;19.80;72.00;;;;;;5019688;28;20091;-81
2022/05/31 08:31:31;;;;;;;6.78;3.28;;;19.80;72.10;;;;;;5053401;28;20453;-81
2022/05/31 08:33:58;;;;;;;4.60;2.22;;;19.90;72.60;;;;;;5055106;28;20068;-80
2022/05/31 08:36:24;;;;;;;5.50;2.50;;;19.90;72.40;;;;;;5055071;28;20131;-83
2022/05/31 08:38:49;;;;;;;6.53;2.65;;;20.00;73.40;;;;;;5021724;28;20036;-87
2022/05/31 08:41:23;;;;;;;5.05;2.90;;;20.10;73.50;;;;;;5036878;28;20045;-85
2022/05/31 08:43:49;;;;;;;5.38;2.70;;;20.10;73.00;;;;;;5040650;28;20572;-85
2022/05/31 08:46:50;;;;;;;3.05;2.28;;;20.10;73.00;;;;;;5049719;28;20033;-85
2022/05/31 08:49:16;;;;;;;4.25;2.50;;;20.10;73.20;;;;;;4975859;28;20042;-82
2022/05/31 08:51:58;;;;;;;6.75;2.40;;;20.10;73.10;;;;;;4992582;28;20073;-83
2022/05/31 08:57:47;;;;;;;15.55;2.67;;;20.10;74.00;;;;;;4971991;28;20057;-83
2022/05/31 09:00:25;;;;;;;6.05;2.55;;;20.10;74.20;;;;;;4973648;28;20031;-84
2022/05/31 09:03:16;;;;;;;5.82;2.17;;;20.20;73.80;;;;;;4984523;28;20038;-82
2022/05/31 09:06:07;;;;;;;7.40;3.20;;;20.10;73.70;;;;;;4965394;28;20034;-84
2022/05/31 09:08:44;;;;;;;3.53;2.28;;;20.20;74.10;;;;;;5003653;28;20050;-83
2022/05/31 09:11:18;;;;;;;2.70;2.00;;;20.20;73.90;;;;;;5001042;28;20088;-84
2022/05/31 09:13:47;;;;;;;3.40;2.00;;;20.20;73.30;;;;;;5001947;28;20668;-84
2022/05/31 09:16:50;;;;;;;1.90;1.80;;;20.20;72.90;;;;;;4985239;28;20104;-86
2022/05/31 09:19:26;;;;;;;2.38;2.00;;;20.10;72.90;;;;;;5000750;28;20301;-85
2022/05/31 09:21:52;;;;;;;3.22;1.95;;;20.10;72.70;;;;;;5000792;28;20038;-83
2022/05/31 09:24:21;;;;;;;2.35;2.00;;;20.20;72.70;;;;;;5022189;28;20507;-85
2022/05/31 09:35:07;;;;;;;3.92;2.70;;;19.90;75.30;;;;;;5014842;27;2025935;-72
2022/05/31 09:43:35;;;;;;;7.18;2.65;;;20.50;72.90;;;;;;5092898;27;20121;-76
2022/05/31 09:46:08;;;;;;;4.68;2.33;;;20.50;73.20;;;;;;5071434;28;20028;-76
2022/05/31 09:48:46;;;;;;;4.55;2.30;;;20.50;73.10;;;;;;5071652;28;20035;-75
2022/05/31 09:51:24;;;;;;;4.88;2.25;;;20.40;72.90;;;;;;5070950;28;20043;-81
2022/05/31 09:57:07;;;;;;;2.50;2.30;;;20.30;72.40;;;;;;5071116;28;20456;-75
2022/05/31 09:59:59;;;;;;;4.40;2.00;;;20.20;71.90;;;;;;5071232;28;20028;-83
2022/05/31 10:02:43;;;;;;;4.97;2.45;;;20.20;71.60;;;;;;5072570;28;20032;-74
2022/05/31 10:05:20;;;;;;;3.08;2.30;;;20.30;71.90;;;;;;5069989;28;20036;-77
2022/05/31 10:07:47;;;;;;;5.60;2.38;;;20.40;71.80;;;;;;5069767;28;20044;-77
2022/05/31 10:10:27;;;;;;;3.85;2.38;;;20.40;71.80;;;;;;5069590;28;20033;-76
2022/05/31 10:12:54;;;;;;;6.32;2.90;;;20.40;71.60;;;;;;5070756;28;20036;-76
2022/05/31 10:15:34;;;;;;;4.32;2.33;;;20.40;71.40;;;;;;5072686;28;20036;-77
2022/05/31 10:18:07;;;;;;;2.45;2.03;;;20.40;71.10;;;;;;5070723;28;20065;-77
2022/05/31 10:20:36;;;;;;;5.83;2.27;;;20.30;70.80;;;;;;5070040;28;20103;-78
2022/05/31 10:23:13;;;;;;;3.47;2.10;;;20.30;70.70;;;;;;5070504;28;20297;-77
2022/05/31 10:26:00;;;;;;;2.83;1.88;;;20.30;70.60;;;;;;5070366;28;20128;-78
2022/05/31 10:28:43;;;;;;;4.50;2.03;;;20.30;70.40;;;;;;5070612;28;20036;-77
2022/05/31 10:31:37;;;;;;;4.15;2.35;;;20.30;70.40;;;;;;5068761;28;20033;-77
2022/05/31 10:34:22;;;;;;;3.88;2.55;;;20.30;70.20;;;;;;5071630;28;20049;-77
2022/05/31 10:36:54;;;;;;;4.03;2.03;;;20.30;70.40;;;;;;5053065;28;20051;-77
2022/05/31 10:39:27;;;;;;;2.20;2.00;;;20.40;70.50;;;;;;5070168;28;20510;-77
2022/05/31 10:41:55;;;;;;;2.63;2.00;;;20.40;70.40;;;;;;5069403;28;20040;-77
2022/05/31 10:44:53;;;;;;;3.00;1.70;;;20.40;69.90;;;;;;5071177;28;20029;-78
2022/05/31 10:47:21;;;;;;;3.13;1.95;;;20.40;69.60;;;;;;5070667;28;20048;-77
2022/05/31 10:49:49;;;;;;;4.22;2.10;;;20.40;69.80;;;;;;5069020;28;20057;-77
2022/05/31 10:52:41;;;;;;;2.25;1.80;;;20.40;69.60;;;;;;5068592;28;20478;-78
2022/05/31 10:55:07;;;;;;;2.33;1.77;;;20.40;69.40;;;;;;5056623;28;20443;-78
2022/05/31 10:58:11;;;;;;;7.80;2.20;;;20.40;69.60;;;;;;5038839;28;20048;-77
2022/05/31 11:00:46;;;;;;;3.13;1.73;;;20.40;70.20;;;;;;5056504;28;20115;-77
2022/05/31 11:03:12;;;;;;;5.40;1.92;;;20.40;69.30;;;;;;5057116;28;20558;-77
2022/05/31 11:06:09;;;;;;;2.90;2.00;;;20.30;69.40;;;;;;5056902;28;20049;-77
2022/05/31 11:11:45;;;;;;;2.78;2.22;;;20.20;69.70;;;;;;5068879;28;20042;-77
2022/05/31 11:14:35;;;;;;;4.82;1.80;;;20.10;69.60;;;;;;5036146;28;20403;-77
2022/05/31 11:17:25;;;;;;;3.40;2.03;;;20.10;69.60;;;;;;5058838;28;20486;-77
2022/05/31 11:20:09;;;;;;;2.22;2.03;;;20.00;69.80;;;;;;5056261;28;20974;-77
2022/05/31 11:22:56;;;;;;;3.33;2.15;;;20.00;69.90;;;;;;5056491;28;20533;-76
2022/05/31 11:25:25;;;;;;;3.45;1.85;;;19.90;70.30;;;;;;5056893;28;20025;-76
2022/05/31 11:28:15;;;;;;;2.45;1.95;;;19.90;70.40;;;;;;5055810;28;20025;-76
2022/05/31 11:31:12;;;;;;;2.85;2.15;;;19.90;70.50;;;;;;5055628;28;20029;-76
2022/05/31 11:33:41;;;;;;;4.68;1.95;;;19.80;70.30;;;;;;5056450;28;20052;-76
2022/05/31 11:36:33;;;;;;;2.97;1.73;;;19.90;70.90;;;;;;5038098;28;20040;-76
2022/05/31 11:39:07;;;;;;;4.85;2.05;;;19.80;70.20;;;;;;5057248;28;20496;-76
2022/05/31 11:41:34;;;;;;;3.55;1.90;;;19.80;70.40;;;;;;5046379;28;20478;-76
2022/05/31 11:44:31;;;;;;;3.67;1.58;;;19.80;70.50;;;;;;5042319;28;20032;-75
2022/05/31 11:47:29;;;;;;;2.95;1.80;;;19.80;70.30;;;;;;5056028;28;20119;-75
2022/05/31 11:50:05;;;;;;;3.80;2.08;;;19.80;70.70;;;;;;5019462;28;20125;-76
2022/05/31 11:52:51;;;;;;;4.05;1.48;;;19.80;70.70;;;;;;5001682;28;20512;-75
2022/05/31 11:55:31;;;;;;;2.72;1.73;;;19.80;71.00;;;;;;5020014;28;20029;-75
2022/05/31 11:58:34;;;;;;;3.28;1.85;;;19.80;70.80;;;;;;5002836;28;20041;-75
2022/05/31 12:01:12;;;;;;;4.25;1.75;;;19.80;71.10;;;;;;5019333;28;20074;-76
2022/05/31 12:04:03;;;;;;;3.47;1.63;;;19.80;71.80;;;;;;5019077;28;20029;-76
2022/05/31 12:06:42;;;;;;;2.10;1.80;;;19.80;71.60;;;;;;5018552;28;20057;-76
2022/05/31 12:09:30;;;;;;;3.33;1.80;;;19.80;71.80;;;;;;5017663;28;20169;-76
2022/05/31 12:12:32;;;;;;;3.72;1.90;;;19.80;72.20;;;;;;5035758;28;20045;-75
2022/05/31 12:15:01;;;;;;;6.57;1.70;;;19.80;72.20;;;;;;4996381;28;20046;-75
2022/05/31 12:17:52;;;;;;;2.55;1.58;;;19.70;72.20;;;;;;4998567;28;20034;-74
2022/05/31 12:20:31;;;;;;;3.13;1.75;;;19.70;72.40;;;;;;5003780;28;20523;-74
2022/05/31 12:23:11;;;;;;;2.63;1.60;;;19.70;72.60;;;;;;4971613;28;20033;-75
2022/05/31 12:25:47;;;;;;;2.05;1.80;;;19.70;72.50;;;;;;4996708;28;20079;-75
2022/05/31 12:28:42;;;;;;;1.88;1.73;;;19.70;72.70;;;;;;5051274;28;20037;-75
2022/05/31 12:31:20;;;;;;;4.60;1.83;;;19.70;72.80;;;;;;5027433;28;20033;-76
2022/05/31 12:33:48;;;;;;;3.25;1.77;;;19.70;73.00;;;;;;5022607;28;20037;-75
2022/05/31 12:36:20;;;;;;;2.95;1.83;;;19.70;73.10;;;;;;5052052;28;20044;-74
2022/05/31 12:39:19;;;;;;;5.07;2.00;;;19.70;73.00;;;;;;5036388;28;20174;-74
2022/05/31 12:41:47;;;;;;;1.60;1.50;;;19.70;73.20;;;;;;5050804;28;20135;-74
2022/05/31 12:44:14;;;;;;;2.50;1.48;;;19.70;73.50;;;;;;5035756;28;20087;-74
2022/05/31 12:46:45;;;;;;;3.28;2.00;;;19.80;73.50;;;;;;5052178;28;20519;-76
2022/05/31 12:49:18;;;;;;;4.00;1.77;;;19.80;73.60;;;;;;5053736;28;20098;-78
2022/05/31 12:52:27;;;;;;;6.97;2.20;;;19.80;73.80;;;;;;5059144;28;20037;-83
2022/05/31 12:54:56;;;;;;;9.45;2.53;;;19.80;73.30;;;;;;5019839;28;20039;-80
2022/05/31 13:00:33;;;;;;;4.60;2.47;;;19.90;74.50;;;;;;5006479;28;20540;-81
2022/05/31 13:03:05;;;;;;;4.78;2.85;;;20.00;75.30;;;;;;5023795;28;20057;-82
2022/05/31 13:05:57;;;;;;;8.07;3.30;;;20.00;75.40;;;;;;5022599;28;20076;-79
2022/05/31 13:08:52;;;;;;;4.85;2.92;;;20.10;76.20;;;;;;5017198;28;20056;-80
2022/05/31 13:20:19;;;;;;;3.53;2.65;;;20.10;76.40;;;;;;5019454;28;20071;-76
2022/05/31 13:22:50;;;;;;;4.30;2.83;;;20.10;77.00;;;;;;5013459;28;20107;-76
2022/05/31 13:25:22;;;;;;;4.18;2.70;;;20.10;76.50;;;;;;5022052;28;20061;-78
2022/05/31 13:27:54;;;;;;;3.70;2.17;;;20.00;76.50;;;;;;5027111;28;20122;-78
2022/05/31 13:30:24;;;;;;;5.18;2.50;;;20.10;76.60;;;;;;5012012;28;20030;-80
2022/05/31 13:32:50;;;;;;;4.38;2.80;;;20.30;77.10;;;;;;4998930;28;20045;-80
2022/05/31 13:35:24;;;;;;;3.80;2.65;;;20.30;76.40;;;;;;5020621;28;20033;-81
2022/05/31 13:38:03;;;;;;;7.63;2.60;;;20.30;75.80;;;;;;5039016;28;20037;-79
2022/05/31 13:40:34;;;;;;;6.75;2.97;;;20.30;76.40;;;;;;5044954;28;20104;-80
2022/05/31 13:43:04;;;;;;;3.38;2.53;;;20.40;75.70;;;;;;5048889;28;20065;-79
2022/05/31 13:45:33;;;;;;;3.55;3.05;;;20.40;75.70;;;;;;5037487;28;20124;-81
2022/05/31 13:48:13;;;;;;;10.05;3.17;;;20.40;76.00;;;;;;5046883;28;20123;-77
2022/05/31 13:50:55;;;;;;;6.82;3.20;;;20.50;78.20;;;;;;5034003;28;20029;-79
2022/05/31 13:53:22;;;;;;;7.07;3.25;;;20.50;79.40;;;;;;5043120;28;20122;-76
2022/05/31 13:55:56;;;;;;;5.72;2.95;;;20.50;79.00;;;;;;5035161;28;20059;-77
2022/05/31 13:58:48;;;;;;;5.25;2.95;;;20.40;79.60;;;;;;5049085;28;20037;-75
2022/05/31 14:01:20;;;;;;;17.00;3.40;;;20.30;79.70;;;;;;5034138;28;20034;-76
2022/05/31 14:03:46;;;;;;;7.95;3.10;;;20.30;79.80;;;;;;5033973;28;20037;-75
2022/05/31 14:06:19;;;;;;;3.92;2.83;;;20.30;79.30;;;;;;5034516;28;20034;-76
2022/05/31 14:08:46;;;;;;;4.78;3.00;;;20.30;78.40;;;;;;5032234;28;20033;-75
2022/05/31 14:11:26;;;;;;;4.05;2.78;;;20.20;79.70;;;;;;5033497;28;20520;-74
2022/05/31 14:13:57;;;;;;;4.15;2.85;;;20.20;80.00;;;;;;5034937;28;20045;-74
2022/05/31 14:16:41;;;;;;;3.40;2.67;;;20.20;79.90;;;;;;5032908;28;20412;-75